San Carlos, Arizona
Current Conditions -  °F | °C
As of 6:51 PM on Saturday 20 Dec 2014 (Local Time) from KSAD Reporting Station
Clear Clear  
Wind Chill: 43°   Ceiling: Unl
Heat Index: 47°   Visibility: 10mi
Dew Point: 39°   Wind: 8mph
Humidity: 74%   Direction: 360°N
Pressure: 30.1"   Gusts: NA
Location:  33.35°N, 110.45°W
Report Text: KSAD 210151Z AUTO 36007KT 10SM CLR 08/04 A3010 RMK AO2 SLP191 T00830039
Loading
Personal Weather Stations






























Interactive Weather Map New forecast layout! Learn more

10-Day Weather Forecast

Advertisements
Track Severe Weather on mobile